Racecast

Jayceon Rucker

ACE Elite (MD) · 5 · Compare head to head

Athlete rating 119.5 2024 TF season
Best race 119.5 TF
Races 62
Seasons 5 2022 — 2026
Rating scale ?
Speed rating — all races

Track & Field

TF speed rating

2026 TF

ACE Elite (MD) · Grade 5

Date Meet Event Result Place Rating Difficulty PR/SR Flags
2026-06-06 USATF Potomac Valley Youth Association Junior Olympic Championship 200m 28.69 18th · 3rd on team -0.034
2026-06-06 USATF Potomac Valley Youth Association Junior Olympic Championship 100m 13.45 9th · 4th on team -0.034 SR
2026-05-24 White Knight Youth Challenge 200m 28.64 12th · 3rd on team -0.042
2026-05-24 White Knight Youth Challenge 100m 13.67 5th · 2nd on team -0.042
2026-05-16 Lightning Relays 200m 28.24 14th · 3rd on team -0.042 ★PR SR
2026-05-16 Lightning Relays 100m 13.5 14th · 4th on team -0.042 SR

2025 TF

Speed and Endurance Track Club (MD) · Grade 4

Date Meet Event Result Place Rating Difficulty PR/SR Flags
2025-05-25 HR Hurricanes CAT 5 Invite 100m 13.91 10th · 2nd on team -0.035
2025-05-25 HR Hurricanes CAT 5 Invite 100m 13.26 1st · 1st on team -0.035 ★PR SR
2025-05-17 LIGHTNING RELAYS 100m 13.71 3rd · 1st on team -0.042 PR SR
2025-04-27 Virginia Pride Spring Kick - Off 100m 13.87 5th · 2nd on team -0.034
2025-04-27 Virginia Pride Spring Kick - Off 200m 29.06 7th · 2nd on team -0.034 PR SR
2024-08-03 AAU Junior Olympic Games 100m 13.87 35th · 1st on team -0.039 SR
2024-08-03 AAU Junior Olympic Games 100m 13.9 39th · 2nd on team -0.039

2024 TF 119.5

Xceleration Nation Track Club (MD) · Grade 3

Date Meet Event Result Place Rating Difficulty PR/SR Flags
2024-06-23 AAU Region 3 100m 14.23 11th · 2nd on team -0.031
2024-06-23 AAU Region 3 100m 13.86 4th · 1st on team -0.031 PR SR
2024-06-09 AAU Maryland District Qualifier 100m 14.17 4th · 1st on team -0.033
2024-06-09 AAU Maryland District Qualifier 100m 14.34 7th · 2nd on team -0.033
2024-06-02 DMV Youth Challenge 200m 30.41 11th · 1st on team -0.034
2024-05-25 Legacy VA Invitational 100m 14.61 7th · 2nd on team -0.027 SR
2024-05-25 Legacy VA Invitational 400m 1:12.83 8th · 1st on team -0.027 ★PR SR
2024-05-25 Legacy VA Invitational 200m 29.94 5th · 1st on team -0.027 PR SR
2024-05-25 Legacy VA Invitational 100m 14.03 3rd · 1st on team -0.027 SR
2024-05-18 Lightning Relays 400m 1:16.95 8th · 3rd on team -0.034 PR SR
2024-05-18 Lightning Relays 100m 15.07 3rd · 2nd on team -0.034
2024-04-28 Virginia Pride Spring Kick - Off 800m 2:54.86 7th · 2nd on team 119.5 -0.034 ★PR ★R SR RSR
2024-04-28 Virginia Pride Spring Kick - Off 100m 14.99 5th · 1st on team -0.034 SR

2023 TF

Glenarden Track (MD) · Grade 2

Date Meet Event Result Place Rating Difficulty PR/SR Flags
2023-02-25 LEGACY INDOOR TRACK SHOWCASE 400m 1:19.67 10th · 1st on team -0.039 PR SR
2023-02-25 LEGACY INDOOR TRACK SHOWCASE 200m 31.93 3rd · 1st on team -0.039
2023-02-19 PVA 14 & Under National Indoor Invitational 200m 31.13 3rd · 1st on team -0.039 PR SR
2023-02-19 PVA 14 & Under National Indoor Invitational 200m 33.14 12th · 2nd on team -0.039
2023-02-19 PVA 14 & Under National Indoor Invitational 55m 8.73 5th · 3rd on team -0.039 PR SR
2023-02-19 PVA 14 & Under National Indoor Invitational 55m 8.52 1st · 1st on team -0.039 ★PR SR

2022 TF

Glenarden Track (MD) · Grade 1

Date Meet Event Result Place Rating Difficulty PR/SR Flags
2022-07-17 International Youth Championship 100m 15.93 20th · 8th on team -0.001
2022-07-17 International Youth Championship 200m 32.45 11th · 3rd on team -0.001 PR SR
2022-07-17 International Youth Championship 200m 33.93 33rd · 7th on team -0.001
2022-07-17 International Youth Championship 200m 32.29 8th · 1st on team -0.001 PR SR
2022-07-17 International Youth Championship 100m 15.9 17th · 7th on team -0.001
2022-07-17 International Youth Championship 100m 15.98 23rd · 9th on team -0.001
2022-06-26 AAU Region 3 National Qualifier 100m 15.8 17th · 3rd on team -0.034
2022-06-26 AAU Region 3 National Qualifier 400m 1:20.1 15th · 2nd on team -0.034 PR SR
2022-06-05 DMV Youth Challenge 400m 1:20.72 17th · 3rd on team -0.034 PR SR
2022-06-05 DMV Youth Challenge 100m 16.2 15th · 3rd on team -0.034
2022-05-29 AAU PVA District Championships 100m 13.93 2nd · 2nd on team -0.021 PR SR
2022-05-29 AAU PVA District Championships 400m 1:32.7 12th · 3rd on team -0.021
2022-05-29 AAU PVA District Championships 100m 15.58 8th · 6th on team -0.021
2022-03-13 AAU National Indoor Championships 60m 9.62 21st · 1st on team -0.036 ★PR SR
2022-03-13 AAU National Indoor Championships 400m 1:25.56 27th · 2nd on team -0.036
2022-02-06 NJ-AAU Jersey City Rec Development Series Meet 3 400m 1:21.71 1st · 1st on team -0.027 PR SR
2022-02-06 NJ-AAU Jersey City Rec Development Meet 3 400m 1:21.71 1st · 1st on team -0.027
2022-02-06 NJ-AAU Jersey City Rec Development Meet 3 400m 1:21.71 1st · 1st on team -0.027
2022-02-06 NJ-AAU Jersey City Rec Development Meet 3 200m 34.76 2nd · 1st on team -0.027 PR SR
2022-02-06 NJ-AAU Jersey City Rec Development Series Meet 3 200m 34.76 2nd · 1st on team -0.027
2022-02-06 NJ-AAU Jersey City Rec Development Meet 3 200m 34.76 2nd · 1st on team -0.027
2022-02-06 NJ-AAU Jersey City Rec Development Meet 3 55m 9.17 1st · 1st on team -0.027 PR SR
2022-02-06 NJ-AAU Jersey City Rec Development Series Meet 3 55m 9.17 1st · 1st on team -0.027
2022-02-06 NJ-AAU Jersey City Rec Development Meet 3 55m 9.17 1st · 1st on team -0.027
2022-01-30 Track 757 Invitational 200m 35.48 5th · 2nd on team -0.036 PR SR
2022-01-30 Track 757 Invitational 400m 1:23.02 5th · 2nd on team -0.036 PR SR
2021-12-19 Grant Holloway AAU Invitational 100m 18.11 12th · 4th on team -0.036 PR SR
2021-12-19 Grant Holloway AAU Invitational 200m 40.6 5th · 2nd on team -0.036 PR SR
2021-12-19 Grant Holloway AAU Invitational 60m 11.87 18th · 7th on team -0.036 PR SR
2021-12-19 Grant Holloway AAU Invitational 60m 10.78 3rd · 3rd on team -0.036 PR SR